sensor_id;sensor_type;location;lat;lon;timestamp;pressure;altitude;pressure_sealevel;temperature;humidity
56330;BME280;42236;48.058;10.632;2023-01-28T00:01:47;94980.16;;;-1.98;99.30
56330;BME280;42236;48.058;10.632;2023-01-28T00:04:33;94974.31;;;-2.05;99.43
56330;BME280;42236;48.058;10.632;2023-01-28T00:07:18;94967.16;;;-2.05;99.39
56330;BME280;42236;48.058;10.632;2023-01-28T00:10:05;94965.31;;;-2.04;99.23
56330;BME280;42236;48.058;10.632;2023-01-28T00:12:50;94968.44;;;-2.12;99.52
56330;BME280;42236;48.058;10.632;2023-01-28T00:15:36;94971.56;;;-2.16;99.21
56330;BME280;42236;48.058;10.632;2023-01-28T00:18:22;94966.22;;;-2.21;99.52
56330;BME280;42236;48.058;10.632;2023-01-28T00:21:13;94981.00;;;-2.25;99.82
56330;BME280;42236;48.058;10.632;2023-01-28T00:24:00;94970.69;;;-2.26;100.00
56330;BME280;42236;48.058;10.632;2023-01-28T00:26:46;94968.84;;;-2.26;100.00
56330;BME280;42236;48.058;10.632;2023-01-28T00:29:31;94966.22;;;-2.21;100.00
56330;BME280;42236;48.058;10.632;2023-01-28T00:32:17;94969.16;;;-2.22;100.00
56330;BME280;42236;48.058;10.632;2023-01-28T00:35:03;94962.56;;;-2.20;100.00
56330;BME280;42236;48.058;10.632;2023-01-28T00:37:48;94964.66;;;-2.22;99.74
56330;BME280;42236;48.058;10.632;2023-01-28T00:40:34;94969.44;;;-2.19;99.68
56330;BME280;42236;48.058;10.632;2023-01-28T00:43:20;94964.09;;;-2.24;99.17
56330;BME280;42236;48.058;10.632;2023-01-28T00:46:07;94964.66;;;-2.22;99.10
56330;BME280;42236;48.058;10.632;2023-01-28T00:48:53;94963.78;;;-2.27;99.32
56330;BME280;42236;48.058;10.632;2023-01-28T00:51:39;94966.94;;;-2.30;99.62
56330;BME280;42236;48.058;10.632;2023-01-28T00:54:25;94970.34;;;-2.35;99.80
56330;BME280;42236;48.058;10.632;2023-01-28T00:57:10;94965.06;;;-2.35;99.79
56330;BME280;42236;48.058;10.632;2023-01-28T00:59:57;94964.56;;;-2.32;99.97
56330;BME280;42236;48.058;10.632;2023-01-28T01:02:42;94960.84;;;-2.36;99.84
56330;BME280;42236;48.058;10.632;2023-01-28T01:05:28;94967.22;;;-2.32;99.60
56330;BME280;42236;48.058;10.632;2023-01-28T01:08:14;94967.66;;;-2.40;100.00
56330;BME280;42236;48.058;10.632;2023-01-28T01:11:03;94973.25;;;-2.37;100.00
56330;BME280;42236;48.058;10.632;2023-01-28T01:13:53;94973.50;;;-2.38;100.00
56330;BME280;42236;48.058;10.632;2023-01-28T01:16:39;94967.47;;;-2.33;99.74
56330;BME280;42236;48.058;10.632;2023-01-28T01:19:25;94969.91;;;-2.27;99.33
56330;BME280;42236;48.058;10.632;2023-01-28T01:22:12;94974.44;;;-2.22;99.14
56330;BME280;42236;48.058;10.632;2023-01-28T01:24:58;94977.34;;;-2.19;99.06
56330;BME280;42236;48.058;10.632;2023-01-28T01:27:44;94978.34;;;-2.25;99.22
56330;BME280;42236;48.058;10.632;2023-01-28T01:30:32;94982.59;;;-2.24;99.60
56330;BME280;42236;48.058;10.632;2023-01-28T01:33:18;94986.34;;;-2.20;99.19
56330;BME280;42236;48.058;10.632;2023-01-28T01:36:04;94992.16;;;-2.18;99.12
56330;BME280;42236;48.058;10.632;2023-01-28T01:38:53;94983.91;;;-2.26;98.94
56330;BME280;42236;48.058;10.632;2023-01-28T01:41:39;94988.91;;;-2.25;99.39
56330;BME280;42236;48.058;10.632;2023-01-28T01:48:01;94983.69;;;-2.20;99.29
56330;BME280;42236;48.058;10.632;2023-01-28T01:50:55;94999.56;;;-2.20;98.86
56330;BME280;42236;48.058;10.632;2023-01-28T01:53:44;94996.38;;;-2.22;99.10
56330;BME280;42236;48.058;10.632;2023-01-28T01:56:35;95002.44;;;-2.21;98.91
56330;BME280;42236;48.058;10.632;2023-01-28T01:59:26;94994.75;;;-2.23;99.00
56330;BME280;42236;48.058;10.632;2023-01-28T02:02:13;94988.88;;;-2.30;99.67
56330;BME280;42236;48.058;10.632;2023-01-28T02:04:59;94993.09;;;-2.34;99.62
56330;BME280;42236;48.058;10.632;2023-01-28T02:07:46;94996.28;;;-2.32;99.94
56330;BME280;42236;48.058;10.632;2023-01-28T02:10:32;94987.56;;;-2.27;99.75
56330;BME280;42236;48.058;10.632;2023-01-28T02:13:19;94991.53;;;-2.30;99.66
56330;BME280;42236;48.058;10.632;2023-01-28T02:16:07;95000.56;;;-2.26;99.63
56330;BME280;42236;48.058;10.632;2023-01-28T02:18:53;94993.69;;;-2.27;99.62
56330;BME280;42236;48.058;10.632;2023-01-28T02:21:56;94994.72;;;-2.28;99.52
56330;BME280;42236;48.058;10.632;2023-01-28T02:27:53;94987.50;;;-2.38;99.74
56330;BME280;42236;48.058;10.632;2023-01-28T02:30:50;94991.47;;;-2.35;99.81
56330;BME280;42236;48.058;10.632;2023-01-28T02:36:35;94991.47;;;-2.35;99.94
56330;BME280;42236;48.058;10.632;2023-01-28T02:39:28;94992.06;;;-2.28;99.72
56330;BME280;42236;48.058;10.632;2023-01-28T02:42:29;94990.50;;;-2.29;99.18
56330;BME280;42236;48.058;10.632;2023-01-28T02:45:23;94989.19;;;-2.26;99.03
56330;BME280;42236;48.058;10.632;2023-01-28T02:48:10;95007.41;;;-2.25;99.15
56330;BME280;42236;48.058;10.632;2023-01-28T02:51:21;95005.03;;;-2.26;99.26
56330;BME280;42236;48.058;10.632;2023-01-28T02:54:22;94998.97;;;-2.27;99.44
56330;BME280;42236;48.058;10.632;2023-01-28T03:00:16;95013.22;;;-2.28;99.36
56330;BME280;42236;48.058;10.632;2023-01-28T03:06:10;95011.63;;;-2.29;99.45
56330;BME280;42236;48.058;10.632;2023-01-28T03:09:00;95015.28;;;-2.30;99.37
56330;BME280;42236;48.058;10.632;2023-01-28T03:12:21;95014.00;;;-2.27;99.72
56330;BME280;42236;48.058;10.632;2023-01-28T03:15:34;95010.31;;;-2.26;99.81
56330;BME280;42236;48.058;10.632;2023-01-28T03:18:44;95012.22;;;-2.22;99.82
56330;BME280;42236;48.058;10.632;2023-01-28T03:21:50;95019.63;;;-2.19;99.82
56330;BME280;42236;48.058;10.632;2023-01-28T03:24:56;95013.00;;;-2.21;99.12
56330;BME280;42236;48.058;10.632;2023-01-28T03:28:03;95011.66;;;-2.24;99.29
56330;BME280;42236;48.058;10.632;2023-01-28T03:31:11;95015.06;;;-2.28;99.41
56330;BME280;42236;48.058;10.632;2023-01-28T03:34:19;95019.00;;;-2.31;99.44
56330;BME280;42236;48.058;10.632;2023-01-28T03:37:25;95020.59;;;-2.30;99.59
56330;BME280;42236;48.058;10.632;2023-01-28T03:40:13;95023.53;;;-2.26;99.43
56330;BME280;42236;48.058;10.632;2023-01-28T03:42:58;95021.09;;;-2.33;99.58
56330;BME280;42236;48.058;10.632;2023-01-28T03:45:45;95031.41;;;-2.31;99.63
56330;BME280;42236;48.058;10.632;2023-01-28T03:48:35;95034.06;;;-2.31;99.43
56330;BME280;42236;48.058;10.632;2023-01-28T03:51:21;95029.56;;;-2.31;99.42
56330;BME280;42236;48.058;10.632;2023-01-28T03:54:06;95025.38;;;-2.27;99.22
56330;BME280;42236;48.058;10.632;2023-01-28T03:56:52;95027.75;;;-2.25;98.91
56330;BME280;42236;48.058;10.632;2023-01-28T03:59:38;95032.25;;;-2.26;98.88
56330;BME280;42236;48.058;10.632;2023-01-28T04:02:24;95036.16;;;-2.33;99.10
56330;BME280;42236;48.058;10.632;2023-01-28T04:05:11;95035.91;;;-2.32;99.35
56330;BME280;42236;48.058;10.632;2023-01-28T04:07:57;95033.75;;;-2.35;99.32
56330;BME280;42236;48.058;10.632;2023-01-28T04:10:43;95033.94;;;-2.42;99.33
56330;BME280;42236;48.058;10.632;2023-01-28T04:13:29;95037.34;;;-2.46;99.82
56330;BME280;42236;48.058;10.632;2023-01-28T04:16:16;95040.78;;;-2.46;99.92
56330;BME280;42236;48.058;10.632;2023-01-28T04:19:02;95042.31;;;-2.50;99.72
56330;BME280;42236;48.058;10.632;2023-01-28T04:21:48;95045.75;;;-2.49;99.82
56330;BME280;42236;48.058;10.632;2023-01-28T04:24:33;95040.00;;;-2.46;99.78
56330;BME280;42236;48.058;10.632;2023-01-28T04:27:19;95048.53;;;-2.39;99.75
56330;BME280;42236;48.058;10.632;2023-01-28T04:30:05;95046.84;;;-2.45;99.60
56330;BME280;42236;48.058;10.632;2023-01-28T04:32:51;95044.13;;;-2.55;99.50
56330;BME280;42236;48.058;10.632;2023-01-28T04:35:37;95038.38;;;-2.47;99.84
56330;BME280;42236;48.058;10.632;2023-01-28T04:38:22;95041.56;;;-2.45;99.85
56330;BME280;42236;48.058;10.632;2023-01-28T04:41:08;95055.38;;;-2.38;99.74
56330;BME280;42236;48.058;10.632;2023-01-28T04:43:53;95047.47;;;-2.38;99.43
56330;BME280;42236;48.058;10.632;2023-01-28T04:46:40;95052.19;;;-2.40;99.62
56330;BME280;42236;48.058;10.632;2023-01-28T04:49:26;95055.56;;;-2.45;99.81
56330;BME280;42236;48.058;10.632;2023-01-28T04:52:11;95057.19;;;-2.44;99.56
56330;BME280;42236;48.058;10.632;2023-01-28T04:54:57;95059.56;;;-2.42;99.49
56330;BME280;42236;48.058;10.632;2023-01-28T04:57:43;95057.47;;;-2.40;99.61
56330;BME280;42236;48.058;10.632;2023-01-28T05:00:28;95062.47;;;-2.44;99.47
56330;BME280;42236;48.058;10.632;2023-01-28T05:03:14;95063.88;;;-2.36;99.44
56330;BME280;42236;48.058;10.632;2023-01-28T05:06:00;95069.66;;;-2.39;98.91
56330;BME280;42236;48.058;10.632;2023-01-28T05:08:46;95073.63;;;-2.37;98.94
56330;BME280;42236;48.058;10.632;2023-01-28T05:11:31;95072.81;;;-2.37;98.79
56330;BME280;42236;48.058;10.632;2023-01-28T05:14:17;95071.28;;;-2.33;98.74
56330;BME280;42236;48.058;10.632;2023-01-28T05:17:03;95064.97;;;-2.32;98.47
56330;BME280;42236;48.058;10.632;2023-01-28T05:19:48;95072.34;;;-2.34;98.48
56330;BME280;42236;48.058;10.632;2023-01-28T05:22:34;95076.00;;;-2.35;98.59
56330;BME280;42236;48.058;10.632;2023-01-28T05:25:19;95072.34;;;-2.34;98.66
56330;BME280;42236;48.058;10.632;2023-01-28T05:28:05;95077.63;;;-2.34;98.42
56330;BME280;42236;48.058;10.632;2023-01-28T05:30:51;95077.63;;;-2.34;98.53
56330;BME280;42236;48.058;10.632;2023-01-28T05:33:36;95090.28;;;-2.36;98.17
56330;BME280;42236;48.058;10.632;2023-01-28T05:36:22;95087.38;;;-2.34;98.68
56330;BME280;42236;48.058;10.632;2023-01-28T05:39:08;95089.00;;;-2.33;98.27
56330;BME280;42236;48.058;10.632;2023-01-28T05:41:53;95101.09;;;-2.38;98.17
56330;BME280;42236;48.058;10.632;2023-01-28T05:44:39;95090.41;;;-2.48;98.35
56330;BME280;42236;48.058;10.632;2023-01-28T05:47:25;95099.44;;;-2.44;98.64
56330;BME280;42236;48.058;10.632;2023-01-28T05:50:12;95096.25;;;-2.46;98.69
56330;BME280;42236;48.058;10.632;2023-01-28T05:52:58;95095.94;;;-2.49;98.94
56330;BME280;42236;48.058;10.632;2023-01-28T05:55:51;95100.66;;;-2.51;98.89
56330;BME280;42236;48.058;10.632;2023-01-28T05:58:37;95097.53;;;-2.48;98.95
56330;BME280;42236;48.058;10.632;2023-01-28T06:01:23;95100.41;;;-2.50;98.67
56330;BME280;42236;48.058;10.632;2023-01-28T06:04:09;95104.13;;;-2.51;98.56
56330;BME280;42236;48.058;10.632;2023-01-28T06:06:54;95096.13;;;-2.56;98.24
56330;BME280;42236;48.058;10.632;2023-01-28T06:09:40;95100.38;;;-2.55;98.25
56330;BME280;42236;48.058;10.632;2023-01-28T06:12:26;95105.19;;;-2.47;97.90
56330;BME280;42236;48.058;10.632;2023-01-28T06:15:11;95105.25;;;-2.42;97.64
56330;BME280;42236;48.058;10.632;2023-01-28T06:17:57;95109.19;;;-2.44;96.97
56330;BME280;42236;48.058;10.632;2023-01-28T06:20:43;95109.69;;;-2.47;96.73
56330;BME280;42236;48.058;10.632;2023-01-28T06:23:29;95117.63;;;-2.47;96.63
56330;BME280;42236;48.058;10.632;2023-01-28T06:26:14;95115.72;;;-2.52;96.04
56330;BME280;42236;48.058;10.632;2023-01-28T06:29:00;95126.22;;;-2.57;95.79
56330;BME280;42236;48.058;10.632;2023-01-28T06:31:45;95118.53;;;-2.59;96.20
56330;BME280;42236;48.058;10.632;2023-01-28T06:34:31;95122.22;;;-2.60;95.50
56330;BME280;42236;48.058;10.632;2023-01-28T06:37:17;95131.69;;;-2.64;95.33
56330;BME280;42236;48.058;10.632;2023-01-28T06:40:03;95130.09;;;-2.65;95.29
56330;BME280;42236;48.058;10.632;2023-01-28T06:42:48;95133.78;;;-2.66;95.38
56330;BME280;42236;48.058;10.632;2023-01-28T06:45:34;95130.66;;;-2.63;95.30
56330;BME280;42236;48.058;10.632;2023-01-28T06:48:20;95132.78;;;-2.60;95.25
56330;BME280;42236;48.058;10.632;2023-01-28T06:51:06;95136.00;;;-2.58;94.85
56330;BME280;42236;48.058;10.632;2023-01-28T06:53:51;95138.63;;;-2.58;94.78
56330;BME280;42236;48.058;10.632;2023-01-28T06:56:37;95141.34;;;-2.52;95.11
56330;BME280;42236;48.058;10.632;2023-01-28T06:59:22;95143.47;;;-2.49;95.33
56330;BME280;42236;48.058;10.632;2023-01-28T07:02:10;95152.47;;;-2.50;95.32
56330;BME280;42236;48.058;10.632;2023-01-28T07:04:55;95153.25;;;-2.50;95.57
56330;BME280;42236;48.058;10.632;2023-01-28T07:07:41;95150.84;;;-2.51;95.40
56330;BME280;42236;48.058;10.632;2023-01-28T07:10:27;95153.00;;;-2.48;95.80
56330;BME280;42236;48.058;10.632;2023-01-28T07:13:13;95159.88;;;-2.47;95.83
56330;BME280;42236;48.058;10.632;2023-01-28T07:15:59;95158.84;;;-2.46;95.54
56330;BME280;42236;48.058;10.632;2023-01-28T07:18:45;95161.50;;;-2.46;95.99
56330;BME280;42236;48.058;10.632;2023-01-28T07:21:30;95164.66;;;-2.44;95.69
56330;BME280;42236;48.058;10.632;2023-01-28T07:24:16;95165.16;;;-2.47;95.56
56330;BME280;42236;48.058;10.632;2023-01-28T07:27:02;95167.00;;;-2.48;95.82
56330;BME280;42236;48.058;10.632;2023-01-28T07:29:49;95163.09;;;-2.45;95.51
56330;BME280;42236;48.058;10.632;2023-01-28T07:32:34;95175.00;;;-2.43;95.50
56330;BME280;42236;48.058;10.632;2023-01-28T07:35:20;95173.41;;;-2.44;95.50
56330;BME280;42236;48.058;10.632;2023-01-28T07:38:06;95182.69;;;-2.41;95.76
56330;BME280;42236;48.058;10.632;2023-01-28T07:40:52;95185.41;;;-2.36;95.62
56330;BME280;42236;48.058;10.632;2023-01-28T07:43:38;95181.41;;;-2.39;95.52
56330;BME280;42236;48.058;10.632;2023-01-28T07:46:23;95181.69;;;-2.35;95.57
56330;BME280;42236;48.058;10.632;2023-01-28T07:49:09;95185.41;;;-2.36;95.52
56330;BME280;42236;48.058;10.632;2023-01-28T07:51:54;95185.63;;;-2.38;95.58
56330;BME280;42236;48.058;10.632;2023-01-28T07:54:40;95192.25;;;-2.35;95.48
56330;BME280;42236;48.058;10.632;2023-01-28T07:57:26;95192.88;;;-2.28;96.11
56330;BME280;42236;48.058;10.632;2023-01-28T08:00:14;95193.69;;;-2.27;95.46
56330;BME280;42236;48.058;10.632;2023-01-28T08:03:06;95197.09;;;-2.32;95.71
56330;BME280;42236;48.058;10.632;2023-01-28T08:05:54;95204.44;;;-2.34;95.49
56330;BME280;42236;48.058;10.632;2023-01-28T08:08:40;95201.25;;;-2.36;95.63
56330;BME280;42236;48.058;10.632;2023-01-28T08:11:26;95202.66;;;-2.28;96.05
56330;BME280;42236;48.058;10.632;2023-01-28T08:14:11;95205.06;;;-2.27;95.62
56330;BME280;42236;48.058;10.632;2023-01-28T08:16:57;95209.63;;;-2.22;95.58
56330;BME280;42236;48.058;10.632;2023-01-28T08:19:43;95213.53;;;-2.25;95.58
56330;BME280;42236;48.058;10.632;2023-01-28T08:22:28;95215.69;;;-2.22;95.70
56330;BME280;42236;48.058;10.632;2023-01-28T08:25:14;95219.25;;;-2.11;95.63
56330;BME280;42236;48.058;10.632;2023-01-28T08:28:00;95218.47;;;-2.11;94.90
56330;BME280;42236;48.058;10.632;2023-01-28T08:30:46;95227.44;;;-2.12;94.96
56330;BME280;42236;48.058;10.632;2023-01-28T08:33:32;95234.38;;;-2.06;95.35
56330;BME280;42236;48.058;10.632;2023-01-28T08:36:17;95233.50;;;-1.90;95.74
56330;BME280;42236;48.058;10.632;2023-01-28T08:39:03;95236.88;;;-1.73;95.62
56330;BME280;42236;48.058;10.632;2023-01-28T08:41:50;95232.09;;;-1.76;93.98
56330;BME280;42236;48.058;10.632;2023-01-28T08:44:35;95231.47;;;-1.83;94.19
56330;BME280;42236;48.058;10.632;2023-01-28T08:47:21;95228.78;;;-1.88;94.43
56330;BME280;42236;48.058;10.632;2023-01-28T08:50:07;95234.69;;;-1.81;95.08
56330;BME280;42236;48.058;10.632;2023-01-28T08:52:58;95229.56;;;-1.65;94.91
56330;BME280;42236;48.058;10.632;2023-01-28T08:55:44;95230.66;;;-1.61;93.99
56330;BME280;42236;48.058;10.632;2023-01-28T08:58:30;95229.56;;;-1.65;94.14
56330;BME280;42236;48.058;10.632;2023-01-28T09:01:16;95232.19;;;-1.65;94.48
56330;BME280;42236;48.058;10.632;2023-01-28T09:04:02;95239.16;;;-1.59;94.50
56330;BME280;42236;48.058;10.632;2023-01-28T09:06:48;95243.94;;;-1.56;94.03
56330;BME280;42236;48.058;10.632;2023-01-28T09:09:34;95247.19;;;-1.49;94.26
56330;BME280;42236;48.058;10.632;2023-01-28T09:12:19;95249.56;;;-1.47;93.45
56330;BME280;42236;48.058;10.632;2023-01-28T09:15:05;95254.00;;;-1.53;93.20
56330;BME280;42236;48.058;10.632;2023-01-28T09:17:56;95256.06;;;-1.60;93.23
56330;BME280;42236;48.058;10.632;2023-01-28T09:20:43;95255.94;;;-1.70;93.43
56330;BME280;42236;48.058;10.632;2023-01-28T09:23:28;95253.84;;;-1.68;93.75
56330;BME280;42236;48.058;10.632;2023-01-28T09:26:14;95260.19;;;-1.69;94.26
56330;BME280;42236;48.058;10.632;2023-01-28T09:29:00;95253.97;;;-1.58;94.29
56330;BME280;42236;48.058;10.632;2023-01-28T09:31:45;95260.66;;;-1.51;93.96
56330;BME280;42236;48.058;10.632;2023-01-28T09:34:32;95264.53;;;-1.58;93.09
56330;BME280;42236;48.058;10.632;2023-01-28T09:37:17;95260.84;;;-1.57;93.76
56330;BME280;42236;48.058;10.632;2023-01-28T09:40:03;95257.16;;;-1.56;93.78
56330;BME280;42236;48.058;10.632;2023-01-28T09:46:17;95253.63;;;-1.40;93.97
56330;BME280;42236;48.058;10.632;2023-01-28T09:49:16;95255.81;;;-1.32;92.85
56330;BME280;42236;48.058;10.632;2023-01-28T09:52:03;95262.19;;;-1.33;93.03
56330;BME280;42236;48.058;10.632;2023-01-28T09:55:00;95265.47;;;-1.20;93.14
56330;BME280;42236;48.058;10.632;2023-01-28T09:57:51;95259.06;;;-1.24;92.42
56330;BME280;42236;48.058;10.632;2023-01-28T10:10:15;95254.09;;;-0.89;90.47
56330;BME280;42236;48.058;10.632;2023-01-28T10:13:30;95257.25;;;-0.92;90.98
56330;BME280;42236;48.058;10.632;2023-01-28T10:16:30;95260.28;;;-0.73;92.21
56330;BME280;42236;48.058;10.632;2023-01-28T10:19:23;95251.81;;;-0.75;90.53
56330;BME280;42236;48.058;10.632;2023-01-28T10:22:16;95253.63;;;-0.80;90.30
56330;BME280;42236;48.058;10.632;2023-01-28T10:25:13;95255.13;;;-0.90;90.04
56330;BME280;42236;48.058;10.632;2023-01-28T10:28:01;95255.13;;;-0.90;91.61
56330;BME280;42236;48.058;10.632;2023-01-28T10:30:47;95250.69;;;-0.84;91.84
56330;BME280;42236;48.058;10.632;2023-01-28T10:33:37;95245.09;;;-0.88;91.36
56330;BME280;42236;48.058;10.632;2023-01-28T10:36:24;95255.72;;;-0.82;91.57
56330;BME280;42236;48.058;10.632;2023-01-28T10:39:13;95241.38;;;-0.92;90.85
56330;BME280;42236;48.058;10.632;2023-01-28T10:41:59;95238.28;;;-0.78;91.20
56330;BME280;42236;48.058;10.632;2023-01-28T10:44:46;95242.06;;;-0.69;90.46
56330;BME280;42236;48.058;10.632;2023-01-28T10:47:37;95245.69;;;-0.75;89.49
56330;BME280;42236;48.058;10.632;2023-01-28T10:50:27;95244.19;;;-0.66;90.55
56330;BME280;42236;48.058;10.632;2023-01-28T10:53:13;95246.00;;;-0.72;89.88
56330;BME280;42236;48.058;10.632;2023-01-28T10:55:59;95251.00;;;-0.75;89.37
56330;BME280;42236;48.058;10.632;2023-01-28T10:59:06;95247.84;;;-0.77;88.72
56330;BME280;42236;48.058;10.632;2023-01-28T11:02:27;95249.69;;;-0.73;89.29
56330;BME280;42236;48.058;10.632;2023-01-28T11:05:21;95249.41;;;-0.76;90.35
56330;BME280;42236;48.058;10.632;2023-01-28T11:08:15;95253.38;;;-0.79;90.25
56330;BME280;42236;48.058;10.632;2023-01-28T11:11:01;95245.25;;;-0.67;90.88
56330;BME280;42236;48.058;10.632;2023-01-28T11:13:50;95238.88;;;-0.66;90.64
56330;BME280;42236;48.058;10.632;2023-01-28T11:16:38;95249.22;;;-0.70;89.44
56330;BME280;42236;48.058;10.632;2023-01-28T11:19:30;95245.22;;;-0.72;89.88
56330;BME280;42236;48.058;10.632;2023-01-28T11:25:18;95246.28;;;-0.68;88.72
56330;BME280;42236;48.058;10.632;2023-01-28T11:28:17;95248.63;;;-0.77;89.00
56330;BME280;42236;48.058;10.632;2023-01-28T11:31:04;95244.97;;;-0.66;89.99
56330;BME280;42236;48.058;10.632;2023-01-28T11:34:00;95249.63;;;-0.46;90.05
56330;BME280;42236;48.058;10.632;2023-01-28T11:36:52;95248.94;;;-0.31;89.88
56330;BME280;42236;48.058;10.632;2023-01-28T11:39:38;95249.19;;;-0.27;89.30
56330;BME280;42236;48.058;10.632;2023-01-28T11:42:24;95242.94;;;-0.11;88.94
56330;BME280;42236;48.058;10.632;2023-01-28T11:45:18;95236.59;;;-0.05;88.72
56330;BME280;42236;48.058;10.632;2023-01-28T11:48:23;95232.34;;;-0.06;86.80
56330;BME280;42236;48.058;10.632;2023-01-28T11:51:39;95225.69;;;-0.13;86.98
56330;BME280;42236;48.058;10.632;2023-01-28T11:54:52;95229.03;;;-0.33;86.12
56330;BME280;42236;48.058;10.632;2023-01-28T11:57:56;95236.97;;;-0.33;87.15
56330;BME280;42236;48.058;10.632;2023-01-28T12:01:19;95232.28;;;-0.21;88.43
56330;BME280;42236;48.058;10.632;2023-01-28T12:04:30;95228.34;;;-0.08;86.96
56330;BME280;42236;48.058;10.632;2023-01-28T12:07:41;95229.97;;;-0.07;86.51
56330;BME280;42236;48.058;10.632;2023-01-28T12:10:47;95233.13;;;-0.05;86.74
56330;BME280;42236;48.058;10.632;2023-01-28T12:13:58;95234.78;;;0.06;87.00
56330;BME280;42236;48.058;10.632;2023-01-28T12:17:06;95238.78;;;0.09;85.46
56330;BME280;42236;48.058;10.632;2023-01-28T12:25:49;95234.75;;;-0.04;85.02
56330;BME280;42236;48.058;10.632;2023-01-28T12:28:47;95237.66;;;-0.06;85.82
56330;BME280;42236;48.058;10.632;2023-01-28T12:35:05;95228.91;;;-0.01;85.76
56330;BME280;42236;48.058;10.632;2023-01-28T12:49:47;95238.13;;;-0.19;85.54
56330;BME280;42236;48.058;10.632;2023-01-28T12:52:39;95235.47;;;-0.19;85.83
56330;BME280;42236;48.058;10.632;2023-01-28T12:55:41;95233.84;;;-0.25;84.82
56330;BME280;42236;48.058;10.632;2023-01-28T12:58:39;95234.41;;;-0.18;85.88
56330;BME280;42236;48.058;10.632;2023-01-28T13:01:51;95242.09;;;-0.22;85.07
56330;BME280;42236;48.058;10.632;2023-01-28T13:07:55;95236.06;;;-0.07;85.74
56330;BME280;42236;48.058;10.632;2023-01-28T13:10:45;95240.81;;;-0.14;84.17
56330;BME280;42236;48.058;10.632;2023-01-28T13:13:31;95238.16;;;-0.09;85.54
56330;BME280;42236;48.058;10.632;2023-01-28T13:16:18;95237.41;;;-0.04;86.28
56330;BME280;42236;48.058;10.632;2023-01-28T13:19:25;95237.59;;;-0.21;85.59
56330;BME280;42236;48.058;10.632;2023-01-28T13:22:33;95243.09;;;-0.33;85.23
56330;BME280;42236;48.058;10.632;2023-01-28T13:25:25;95248.06;;;-0.41;86.20
56330;BME280;42236;48.058;10.632;2023-01-28T13:28:28;95245.13;;;-0.45;85.36
56330;BME280;42236;48.058;10.632;2023-01-28T13:31:17;95250.13;;;-0.49;86.31
56330;BME280;42236;48.058;10.632;2023-01-28T13:34:04;95259.16;;;-0.50;86.11
56330;BME280;42236;48.058;10.632;2023-01-28T13:36:51;95260.75;;;-0.44;86.05
56330;BME280;42236;48.058;10.632;2023-01-28T13:39:37;95258.22;;;-0.28;86.49
56330;BME280;42236;48.058;10.632;2023-01-28T13:42:26;95257.72;;;-0.20;86.37
56330;BME280;42236;48.058;10.632;2023-01-28T13:51:17;95259.78;;;-0.32;84.64
56330;BME280;42236;48.058;10.632;2023-01-28T13:54:13;95282.69;;;-0.16;86.07
56330;BME280;42236;48.058;10.632;2023-01-28T13:57:24;95272.13;;;-0.06;85.96
56330;BME280;42236;48.058;10.632;2023-01-28T14:07:05;95281.47;;;0.07;84.42
56330;BME280;42236;48.058;10.632;2023-01-28T14:16:29;95272.91;;;-0.05;82.52
56330;BME280;42236;48.058;10.632;2023-01-28T14:19:25;95274.56;;;0.01;83.90
56330;BME280;42236;48.058;10.632;2023-01-28T14:22:17;95288.13;;;0.10;84.51
56330;BME280;42236;48.058;10.632;2023-01-28T14:25:11;95279.13;;;0.16;84.18
56330;BME280;42236;48.058;10.632;2023-01-28T14:27:58;95290.50;;;0.11;83.05
56330;BME280;42236;48.058;10.632;2023-01-28T14:31:05;95291.47;;;-0.05;80.07
56330;BME280;42236;48.058;10.632;2023-01-28T14:33:54;95290.72;;;0.05;83.27
56330;BME280;42236;48.058;10.632;2023-01-28T14:36:44;95294.19;;;0.00;83.10
56330;BME280;42236;48.058;10.632;2023-01-28T14:39:51;95294.94;;;-0.05;82.26
56330;BME280;42236;48.058;10.632;2023-01-28T14:42:40;95291.47;;;-0.05;82.76
56330;BME280;42236;48.058;10.632;2023-01-28T14:45:55;95297.31;;;-0.03;83.70
56330;BME280;42236;48.058;10.632;2023-01-28T14:52:04;95297.81;;;-0.11;83.98
56330;BME280;42236;48.058;10.632;2023-01-28T14:58:55;95304.66;;;-0.20;84.18
56330;BME280;42236;48.058;10.632;2023-01-28T15:01:25;95304.66;;;-0.20;83.95
56330;BME280;42236;48.058;10.632;2023-01-28T15:04:32;95309.91;;;-0.31;83.16
56330;BME280;42236;48.058;10.632;2023-01-28T15:12:59;95313.31;;;-0.35;85.92
56330;BME280;42236;48.058;10.632;2023-01-28T15:15:48;95330.38;;;-0.21;86.02
56330;BME280;42236;48.058;10.632;2023-01-28T15:18:36;95325.13;;;-0.11;85.45
56330;BME280;42236;48.058;10.632;2023-01-28T15:21:26;95330.66;;;-0.17;85.15
56330;BME280;42236;48.058;10.632;2023-01-28T15:24:13;95334.53;;;-0.30;84.20
56330;BME280;42236;48.058;10.632;2023-01-28T15:26:59;95338.72;;;-0.39;85.14
56330;BME280;42236;48.058;10.632;2023-01-28T15:29:53;95332.63;;;-0.40;85.57
56330;BME280;42236;48.058;10.632;2023-01-28T15:32:39;95339.50;;;-0.39;85.05
56330;BME280;42236;48.058;10.632;2023-01-28T15:35:25;95338.69;;;-0.45;85.14
56330;BME280;42236;48.058;10.632;2023-01-28T15:38:11;95338.69;;;-0.45;85.62
56330;BME280;42236;48.058;10.632;2023-01-28T15:40:59;95350.38;;;-0.40;85.86
56330;BME280;42236;48.058;10.632;2023-01-28T15:43:47;95349.31;;;-0.39;86.12
56330;BME280;42236;48.058;10.632;2023-01-28T15:46:33;95349.03;;;-0.43;86.27
56330;BME280;42236;48.058;10.632;2023-01-28T15:49:19;95353.03;;;-0.40;86.54
56330;BME280;42236;48.058;10.632;2023-01-28T15:52:05;95363.88;;;-0.42;86.65
56330;BME280;42236;48.058;10.632;2023-01-28T15:54:51;95360.72;;;-0.39;86.89
56330;BME280;42236;48.058;10.632;2023-01-28T15:57:37;95354.09;;;-0.36;86.88
56330;BME280;42236;48.058;10.632;2023-01-28T16:00:24;95358.28;;;-0.46;86.68
56330;BME280;42236;48.058;10.632;2023-01-28T16:03:17;95360.63;;;-0.49;87.49
56330;BME280;42236;48.058;10.632;2023-01-28T16:06:16;95357.19;;;-0.50;87.49
56330;BME280;42236;48.058;10.632;2023-01-28T16:09:36;95370.97;;;-0.53;87.40
56330;BME280;42236;48.058;10.632;2023-01-28T16:12:22;95366.69;;;-0.54;87.44
56330;BME280;42236;48.058;10.632;2023-01-28T16:15:15;95370.91;;;-0.58;87.46
56330;BME280;42236;48.058;10.632;2023-01-28T16:18:03;95381.16;;;-0.67;87.75